sensor_id;sensor_type;location;lat;lon;timestamp;P1;durP1;ratioP1;P2;durP2;ratioP2
15968;SDS011;8085;53.472;9.794;2023-04-01T10:08:17;2.50;;;0.80;;
15968;SDS011;8085;53.472;9.794;2023-04-01T10:11:44;1.37;;;0.60;;
15968;SDS011;8085;53.472;9.794;2023-04-01T10:14:36;0.50;;;0.50;;
15968;SDS011;8085;53.472;9.794;2023-04-01T10:17:36;0.50;;;0.43;;
15968;SDS011;8085;53.472;9.794;2023-04-01T10:20:41;0.70;;;0.60;;
15968;SDS011;8085;53.472;9.794;2023-04-01T10:23:41;2.40;;;0.70;;
15968;SDS011;8085;53.472;9.794;2023-04-01T10:26:35;1.17;;;0.50;;
15968;SDS011;8085;53.472;9.794;2023-04-01T10:35:44;0.60;;;0.50;;
15968;SDS011;8085;53.472;9.794;2023-04-01T10:38:50;0.60;;;0.60;;
15968;SDS011;8085;53.472;9.794;2023-04-01T10:44:52;1.50;;;0.67;;
15968;SDS011;8085;53.472;9.794;2023-04-01T10:51:22;1.17;;;0.90;;
15968;SDS011;8085;53.472;9.794;2023-04-01T10:54:18;1.83;;;1.00;;
15968;SDS011;8085;53.472;9.794;2023-04-01T10:57:23;1.47;;;0.83;;
15968;SDS011;8085;53.472;9.794;2023-04-01T11:00:53;1.80;;;0.70;;
15968;SDS011;8085;53.472;9.794;2023-04-01T11:10:57;1.63;;;0.70;;
15968;SDS011;8085;53.472;9.794;2023-04-01T11:23:40;1.13;;;0.67;;
15968;SDS011;8085;53.472;9.794;2023-04-01T11:26:30;1.27;;;0.70;;
15968;SDS011;8085;53.472;9.794;2023-04-01T11:29:21;0.97;;;0.70;;
15968;SDS011;8085;53.472;9.794;2023-04-01T11:32:12;0.83;;;0.80;;
15968;SDS011;8085;53.472;9.794;2023-04-01T11:34:56;1.27;;;1.00;;
15968;SDS011;8085;53.472;9.794;2023-04-01T11:37:35;1.23;;;1.00;;
15968;SDS011;8085;53.472;9.794;2023-04-01T11:40:11;0.83;;;0.80;;
15968;SDS011;8085;53.472;9.794;2023-04-01T11:42:51;0.70;;;0.67;;
15968;SDS011;8085;53.472;9.794;2023-04-01T11:45:26;0.67;;;0.40;;
15968;SDS011;8085;53.472;9.794;2023-04-01T11:48:09;0.80;;;0.57;;
15968;SDS011;8085;53.472;9.794;2023-04-01T11:50:53;0.80;;;0.60;;
15968;SDS011;8085;53.472;9.794;2023-04-01T11:53:37;1.53;;;0.63;;
15968;SDS011;8085;53.472;9.794;2023-04-01T11:56:17;2.43;;;0.90;;
15968;SDS011;8085;53.472;9.794;2023-04-01T11:59:02;2.50;;;0.80;;
15968;SDS011;8085;53.472;9.794;2023-04-01T12:01:54;0.97;;;0.70;;
15968;SDS011;8085;53.472;9.794;2023-04-01T12:04:29;1.17;;;0.83;;
15968;SDS011;8085;53.472;9.794;2023-04-01T12:07:17;1.00;;;0.87;;
15968;SDS011;8085;53.472;9.794;2023-04-01T12:09:49;1.63;;;1.00;;
15968;SDS011;8085;53.472;9.794;2023-04-01T12:12:24;1.47;;;1.07;;
15968;SDS011;8085;53.472;9.794;2023-04-01T12:15:02;1.53;;;1.13;;
15968;SDS011;8085;53.472;9.794;2023-04-01T12:17:41;2.03;;;1.30;;
15968;SDS011;8085;53.472;9.794;2023-04-01T12:23:11;1.90;;;1.30;;
15968;SDS011;8085;53.472;9.794;2023-04-01T12:25:59;2.23;;;1.60;;
15968;SDS011;8085;53.472;9.794;2023-04-01T12:28:36;2.83;;;1.63;;
15968;SDS011;8085;53.472;9.794;2023-04-01T12:31:22;1.70;;;1.17;;
15968;SDS011;8085;53.472;9.794;2023-04-01T12:34:05;2.27;;;1.17;;
15968;SDS011;8085;53.472;9.794;2023-04-01T12:36:53;3.73;;;1.90;;
15968;SDS011;8085;53.472;9.794;2023-04-01T12:39:37;2.17;;;1.70;;
15968;SDS011;8085;53.472;9.794;2023-04-01T12:42:36;3.47;;;2.00;;
15968;SDS011;8085;53.472;9.794;2023-04-01T12:48:15;6.33;;;2.30;;
15968;SDS011;8085;53.472;9.794;2023-04-01T12:51:29;3.20;;;2.33;;
15968;SDS011;8085;53.472;9.794;2023-04-01T12:54:43;2.50;;;2.10;;
15968;SDS011;8085;53.472;9.794;2023-04-01T12:57:31;3.10;;;2.13;;
15968;SDS011;8085;53.472;9.794;2023-04-01T13:00:15;8.03;;;2.77;;
15968;SDS011;8085;53.472;9.794;2023-04-01T13:03:01;4.13;;;2.67;;
15968;SDS011;8085;53.472;9.794;2023-04-01T13:05:52;5.87;;;2.90;;
15968;SDS011;8085;53.472;9.794;2023-04-01T13:08:48;6.17;;;2.77;;
15968;SDS011;8085;53.472;9.794;2023-04-01T13:11:25;3.73;;;3.30;;
15968;SDS011;8085;53.472;9.794;2023-04-01T13:14:13;4.60;;;3.63;;
15968;SDS011;8085;53.472;9.794;2023-04-01T13:17:02;3.67;;;2.33;;
15968;SDS011;8085;53.472;9.794;2023-04-01T13:19:38;2.83;;;2.10;;
15968;SDS011;8085;53.472;9.794;2023-04-01T13:22:11;3.53;;;2.40;;
15968;SDS011;8085;53.472;9.794;2023-04-01T13:24:44;5.20;;;2.30;;
15968;SDS011;8085;53.472;9.794;2023-04-01T13:27:17;3.87;;;2.20;;
15968;SDS011;8085;53.472;9.794;2023-04-01T13:29:57;3.73;;;2.10;;
15968;SDS011;8085;53.472;9.794;2023-04-01T13:32:35;4.00;;;2.30;;
15968;SDS011;8085;53.472;9.794;2023-04-01T13:35:21;3.50;;;2.57;;
15968;SDS011;8085;53.472;9.794;2023-04-01T13:38:15;2.77;;;2.20;;
15968;SDS011;8085;53.472;9.794;2023-04-01T13:41:11;2.90;;;1.90;;
15968;SDS011;8085;53.472;9.794;2023-04-01T13:43:49;3.23;;;2.17;;
15968;SDS011;8085;53.472;9.794;2023-04-01T13:46:26;5.53;;;2.40;;
15968;SDS011;8085;53.472;9.794;2023-04-01T13:49:23;4.60;;;2.47;;
15968;SDS011;8085;53.472;9.794;2023-04-01T13:52:26;3.47;;;2.47;;
15968;SDS011;8085;53.472;9.794;2023-04-01T13:58:51;2.73;;;2.00;;
15968;SDS011;8085;53.472;9.794;2023-04-01T14:01:48;4.27;;;2.63;;
15968;SDS011;8085;53.472;9.794;2023-04-01T14:04:34;4.50;;;2.20;;
15968;SDS011;8085;53.472;9.794;2023-04-01T14:07:34;4.30;;;2.20;;
15968;SDS011;8085;53.472;9.794;2023-04-01T14:10:31;3.53;;;2.50;;
15968;SDS011;8085;53.472;9.794;2023-04-01T14:13:11;4.47;;;2.60;;
15968;SDS011;8085;53.472;9.794;2023-04-01T14:16:07;6.23;;;2.87;;
15968;SDS011;8085;53.472;9.794;2023-04-01T14:19:08;3.53;;;2.70;;
15968;SDS011;8085;53.472;9.794;2023-04-01T14:21:50;4.00;;;2.50;;
15968;SDS011;8085;53.472;9.794;2023-04-01T14:27:21;4.67;;;2.63;;
15968;SDS011;8085;53.472;9.794;2023-04-01T14:32:58;4.70;;;2.67;;
15968;SDS011;8085;53.472;9.794;2023-04-01T14:35:37;4.07;;;2.80;;
15968;SDS011;8085;53.472;9.794;2023-04-01T14:38:20;3.83;;;2.60;;
15968;SDS011;8085;53.472;9.794;2023-04-01T14:40:55;4.90;;;2.37;;
15968;SDS011;8085;53.472;9.794;2023-04-01T14:43:41;5.03;;;3.20;;
15968;SDS011;8085;53.472;9.794;2023-04-01T14:49:15;3.20;;;2.27;;
15968;SDS011;8085;53.472;9.794;2023-04-01T14:51:48;6.33;;;2.63;;
15968;SDS011;8085;53.472;9.794;2023-04-01T14:54:20;4.93;;;2.83;;
15968;SDS011;8085;53.472;9.794;2023-04-01T14:57:01;6.83;;;3.07;;
15968;SDS011;8085;53.472;9.794;2023-04-01T14:59:39;6.93;;;2.97;;
15968;SDS011;8085;53.472;9.794;2023-04-01T15:02:09;5.83;;;3.00;;
15968;SDS011;8085;53.472;9.794;2023-04-01T15:04:55;5.80;;;3.50;;
15968;SDS011;8085;53.472;9.794;2023-04-01T15:07:47;6.50;;;3.23;;
15968;SDS011;8085;53.472;9.794;2023-04-01T15:10:39;7.33;;;3.50;;
15968;SDS011;8085;53.472;9.794;2023-04-01T15:13:18;9.03;;;3.80;;
15968;SDS011;8085;53.472;9.794;2023-04-01T15:16:02;5.53;;;3.27;;
15968;SDS011;8085;53.472;9.794;2023-04-01T15:18:40;5.43;;;3.60;;
15968;SDS011;8085;53.472;9.794;2023-04-01T15:21:21;4.93;;;3.60;;
15968;SDS011;8085;53.472;9.794;2023-04-01T15:24:00;6.17;;;3.30;;
15968;SDS011;8085;53.472;9.794;2023-04-01T15:29:38;5.23;;;3.20;;
15968;SDS011;8085;53.472;9.794;2023-04-01T15:32:16;6.30;;;3.40;;
15968;SDS011;8085;53.472;9.794;2023-04-01T15:34:48;4.53;;;2.90;;
15968;SDS011;8085;53.472;9.794;2023-04-01T15:37:24;5.47;;;3.43;;
15968;SDS011;8085;53.472;9.794;2023-04-01T15:40:02;5.90;;;3.40;;
15968;SDS011;8085;53.472;9.794;2023-04-01T15:42:45;6.17;;;3.60;;
15968;SDS011;8085;53.472;9.794;2023-04-01T15:45:29;8.07;;;3.67;;
15968;SDS011;8085;53.472;9.794;2023-04-01T15:48:06;7.10;;;3.50;;
15968;SDS011;8085;53.472;9.794;2023-04-01T15:50:54;4.77;;;3.10;;
15968;SDS011;8085;53.472;9.794;2023-04-01T15:56:48;4.93;;;2.77;;
15968;SDS011;8085;53.472;9.794;2023-04-01T15:59:41;8.67;;;3.40;;
15968;SDS011;8085;53.472;9.794;2023-04-01T16:02:21;6.17;;;3.57;;
15968;SDS011;8085;53.472;9.794;2023-04-01T16:04:56;5.57;;;3.30;;
15968;SDS011;8085;53.472;9.794;2023-04-01T16:10:32;5.67;;;3.20;;
15968;SDS011;8085;53.472;9.794;2023-04-01T16:13:22;7.93;;;3.97;;
15968;SDS011;8085;53.472;9.794;2023-04-01T16:15:59;8.27;;;3.60;;
15968;SDS011;8085;53.472;9.794;2023-04-01T16:18:36;6.40;;;3.43;;
15968;SDS011;8085;53.472;9.794;2023-04-01T16:21:21;5.57;;;3.60;;
15968;SDS011;8085;53.472;9.794;2023-04-01T16:24:02;5.97;;;3.67;;
15968;SDS011;8085;53.472;9.794;2023-04-01T16:29:32;8.83;;;3.63;;
15968;SDS011;8085;53.472;9.794;2023-04-01T16:32:15;11.87;;;4.23;;
15968;SDS011;8085;53.472;9.794;2023-04-01T16:34:53;9.03;;;3.80;;
15968;SDS011;8085;53.472;9.794;2023-04-01T16:37:33;10.10;;;4.40;;
15968;SDS011;8085;53.472;9.794;2023-04-01T16:40:10;6.50;;;3.63;;
15968;SDS011;8085;53.472;9.794;2023-04-01T16:42:58;6.47;;;4.20;;
15968;SDS011;8085;53.472;9.794;2023-04-01T16:45:45;8.53;;;4.17;;
15968;SDS011;8085;53.472;9.794;2023-04-01T16:48:44;8.60;;;4.03;;
15968;SDS011;8085;53.472;9.794;2023-04-01T16:51:23;7.07;;;4.00;;
15968;SDS011;8085;53.472;9.794;2023-04-01T16:54:04;9.37;;;4.13;;
15968;SDS011;8085;53.472;9.794;2023-04-01T16:56:43;9.70;;;4.40;;
15968;SDS011;8085;53.472;9.794;2023-04-01T17:06:31;7.70;;;3.73;;
15968;SDS011;8085;53.472;9.794;2023-04-01T17:09:07;6.37;;;3.40;;
15968;SDS011;8085;53.472;9.794;2023-04-01T17:11:56;5.40;;;3.70;;
15968;SDS011;8085;53.472;9.794;2023-04-01T17:14:32;5.70;;;3.60;;
15968;SDS011;8085;53.472;9.794;2023-04-01T17:17:16;6.93;;;3.43;;
15968;SDS011;8085;53.472;9.794;2023-04-01T17:20:02;10.03;;;3.97;;
15968;SDS011;8085;53.472;9.794;2023-04-01T17:22:44;9.47;;;4.13;;
15968;SDS011;8085;53.472;9.794;2023-04-01T17:25:34;6.10;;;3.67;;
15968;SDS011;8085;53.472;9.794;2023-04-01T17:28:14;9.43;;;5.50;;
15968;SDS011;8085;53.472;9.794;2023-04-01T17:30:53;9.87;;;4.50;;
15968;SDS011;8085;53.472;9.794;2023-04-01T17:33:38;6.53;;;3.80;;
15968;SDS011;8085;53.472;9.794;2023-04-01T17:36:43;22.97;;;8.93;;
15968;SDS011;8085;53.472;9.794;2023-04-01T17:39:35;13.43;;;6.77;;
15968;SDS011;8085;53.472;9.794;2023-04-01T17:42:17;9.07;;;4.23;;
15968;SDS011;8085;53.472;9.794;2023-04-01T17:44:57;10.10;;;5.33;;
15968;SDS011;8085;53.472;9.794;2023-04-01T17:47:40;8.83;;;4.37;;
15968;SDS011;8085;53.472;9.794;2023-04-01T17:50:23;8.77;;;4.40;;
15968;SDS011;8085;53.472;9.794;2023-04-01T17:52:58;8.13;;;4.50;;
15968;SDS011;8085;53.472;9.794;2023-04-01T17:55:53;8.07;;;4.27;;
15968;SDS011;8085;53.472;9.794;2023-04-01T17:58:29;6.33;;;4.07;;
15968;SDS011;8085;53.472;9.794;2023-04-01T18:01:09;5.67;;;3.60;;
15968;SDS011;8085;53.472;9.794;2023-04-01T18:03:54;6.10;;;3.40;;
15968;SDS011;8085;53.472;9.794;2023-04-01T18:06:47;5.87;;;2.93;;
15968;SDS011;8085;53.472;9.794;2023-04-01T18:09:38;6.70;;;2.90;;
15968;SDS011;8085;53.472;9.794;2023-04-01T18:12:21;6.67;;;2.60;;
15968;SDS011;8085;53.472;9.794;2023-04-01T18:15:06;6.07;;;3.57;;
15968;SDS011;8085;53.472;9.794;2023-04-01T18:17:51;4.87;;;3.10;;
15968;SDS011;8085;53.472;9.794;2023-04-01T18:20:31;9.13;;;3.40;;
15968;SDS011;8085;53.472;9.794;2023-04-01T18:23:11;5.60;;;3.07;;
15968;SDS011;8085;53.472;9.794;2023-04-01T18:25:48;6.17;;;2.67;;
15968;SDS011;8085;53.472;9.794;2023-04-01T18:28:26;3.90;;;2.57;;
15968;SDS011;8085;53.472;9.794;2023-04-01T18:31:04;9.73;;;3.10;;
15968;SDS011;8085;53.472;9.794;2023-04-01T18:33:42;5.57;;;3.00;;
15968;SDS011;8085;53.472;9.794;2023-04-01T18:36:16;4.63;;;2.70;;
15968;SDS011;8085;53.472;9.794;2023-04-01T18:38:50;6.63;;;3.07;;
15968;SDS011;8085;53.472;9.794;2023-04-01T18:41:29;4.90;;;2.60;;
15968;SDS011;8085;53.472;9.794;2023-04-01T18:44:12;8.73;;;3.03;;
15968;SDS011;8085;53.472;9.794;2023-04-01T18:47:02;3.87;;;2.80;;
15968;SDS011;8085;53.472;9.794;2023-04-01T18:49:41;5.97;;;2.87;;
15968;SDS011;8085;53.472;9.794;2023-04-01T18:52:15;8.23;;;3.07;;
15968;SDS011;8085;53.472;9.794;2023-04-01T18:58:26;6.93;;;3.07;;
15968;SDS011;8085;53.472;9.794;2023-04-01T19:01:17;7.00;;;3.30;;
15968;SDS011;8085;53.472;9.794;2023-04-01T19:03:57;7.10;;;2.70;;
15968;SDS011;8085;53.472;9.794;2023-04-01T19:06:32;5.00;;;2.70;;
15968;SDS011;8085;53.472;9.794;2023-04-01T19:09:24;5.40;;;2.90;;
15968;SDS011;8085;53.472;9.794;2023-04-01T19:14:58;6.47;;;3.00;;
15968;SDS011;8085;53.472;9.794;2023-04-01T19:17:51;6.70;;;3.00;;
15968;SDS011;8085;53.472;9.794;2023-04-01T19:20:29;8.00;;;3.33;;
15968;SDS011;8085;53.472;9.794;2023-04-01T19:26:09;8.07;;;3.00;;
15968;SDS011;8085;53.472;9.794;2023-04-01T19:28:40;5.43;;;3.00;;
15968;SDS011;8085;53.472;9.794;2023-04-01T19:31:20;7.87;;;3.10;;
15968;SDS011;8085;53.472;9.794;2023-04-01T19:34:02;9.17;;;2.90;;
15968;SDS011;8085;53.472;9.794;2023-04-01T19:36:41;6.17;;;2.83;;
15968;SDS011;8085;53.472;9.794;2023-04-01T19:39:18;7.13;;;3.03;;
15968;SDS011;8085;53.472;9.794;2023-04-01T19:41:54;7.93;;;3.20;;
15968;SDS011;8085;53.472;9.794;2023-04-01T19:44:31;5.70;;;2.73;;
15968;SDS011;8085;53.472;9.794;2023-04-01T19:47:11;3.83;;;2.80;;
15968;SDS011;8085;53.472;9.794;2023-04-01T19:49:52;8.30;;;3.20;;
15968;SDS011;8085;53.472;9.794;2023-04-01T19:52:30;6.43;;;2.83;;
15968;SDS011;8085;53.472;9.794;2023-04-01T19:55:00;4.57;;;2.60;;
15968;SDS011;8085;53.472;9.794;2023-04-01T19:57:38;5.97;;;2.80;;
15968;SDS011;8085;53.472;9.794;2023-04-01T20:00:15;6.23;;;2.73;;
15968;SDS011;8085;53.472;9.794;2023-04-01T20:05:46;5.97;;;2.83;;
15968;SDS011;8085;53.472;9.794;2023-04-01T20:08:24;7.17;;;2.50;;
15968;SDS011;8085;53.472;9.794;2023-04-01T20:11:04;5.20;;;2.43;;
15968;SDS011;8085;53.472;9.794;2023-04-01T20:13:42;6.07;;;2.60;;
15968;SDS011;8085;53.472;9.794;2023-04-01T20:16:16;5.27;;;2.70;;
15968;SDS011;8085;53.472;9.794;2023-04-01T20:18:48;3.73;;;2.17;;
15968;SDS011;8085;53.472;9.794;2023-04-01T20:21:24;3.07;;;2.37;;
15968;SDS011;8085;53.472;9.794;2023-04-01T20:23:58;4.20;;;2.03;;
15968;SDS011;8085;53.472;9.794;2023-04-01T20:26:31;5.87;;;2.40;;
15968;SDS011;8085;53.472;9.794;2023-04-01T20:29:05;7.07;;;2.50;;
15968;SDS011;8085;53.472;9.794;2023-04-01T20:31:57;5.07;;;2.10;;
15968;SDS011;8085;53.472;9.794;2023-04-01T20:37:29;6.17;;;2.40;;
15968;SDS011;8085;53.472;9.794;2023-04-01T20:46:01;3.90;;;2.13;;
15968;SDS011;8085;53.472;9.794;2023-04-01T20:48:58;4.33;;;1.87;;
15968;SDS011;8085;53.472;9.794;2023-04-01T21:10:09;4.57;;;2.10;;
15968;SDS011;8085;53.472;9.794;2023-04-01T21:13:49;4.67;;;2.30;;
15968;SDS011;8085;53.472;9.794;2023-04-01T21:20:02;6.63;;;2.70;;
15968;SDS011;8085;53.472;9.794;2023-04-01T21:22:48;11.43;;;3.17;;
15968;SDS011;8085;53.472;9.794;2023-04-01T21:25:34;5.17;;;2.30;;
15968;SDS011;8085;53.472;9.794;2023-04-01T21:31:17;4.90;;;2.03;;
15968;SDS011;8085;53.472;9.794;2023-04-01T21:34:08;6.93;;;2.60;;
15968;SDS011;8085;53.472;9.794;2023-04-01T21:37:14;4.47;;;2.33;;
15968;SDS011;8085;53.472;9.794;2023-04-01T21:39:56;5.50;;;2.13;;
15968;SDS011;8085;53.472;9.794;2023-04-01T21:49:42;5.33;;;1.90;;
15968;SDS011;8085;53.472;9.794;2023-04-01T21:52:48;6.40;;;2.10;;
15968;SDS011;8085;53.472;9.794;2023-04-01T22:05:58;4.63;;;2.00;;
15968;SDS011;8085;53.472;9.794;2023-04-01T22:12:23;4.33;;;1.77;;
15968;SDS011;8085;53.472;9.794;2023-04-01T22:14:57;6.87;;;2.23;;
15968;SDS011;8085;53.472;9.794;2023-04-01T22:17:35;6.30;;;1.67;;
15968;SDS011;8085;53.472;9.794;2023-04-01T22:20:16;2.93;;;1.70;;
15968;SDS011;8085;53.472;9.794;2023-04-01T22:23:16;7.83;;;2.10;;
15968;SDS011;8085;53.472;9.794;2023-04-01T22:26:02;5.77;;;1.57;;
15968;SDS011;8085;53.472;9.794;2023-04-01T22:28:36;4.77;;;1.50;;
15968;SDS011;8085;53.472;9.794;2023-04-01T22:31:09;3.80;;;1.50;;
15968;SDS011;8085;53.472;9.794;2023-04-01T22:33:45;7.43;;;1.53;;
15968;SDS011;8085;53.472;9.794;2023-04-01T22:36:20;4.97;;;1.40;;
15968;SDS011;8085;53.472;9.794;2023-04-01T22:38:58;4.30;;;1.50;;
15968;SDS011;8085;53.472;9.794;2023-04-01T22:41:36;3.97;;;1.57;;
15968;SDS011;8085;53.472;9.794;2023-04-01T22:44:16;5.23;;;1.60;;
15968;SDS011;8085;53.472;9.794;2023-04-01T22:49:51;2.50;;;1.33;;
15968;SDS011;8085;53.472;9.794;2023-04-01T22:52:32;4.90;;;1.63;;
15968;SDS011;8085;53.472;9.794;2023-04-01T22:55:24;5.63;;;1.30;;
15968;SDS011;8085;53.472;9.794;2023-04-01T22:57:56;7.17;;;1.83;;
15968;SDS011;8085;53.472;9.794;2023-04-01T23:00:27;5.70;;;1.80;;
15968;SDS011;8085;53.472;9.794;2023-04-01T23:03:02;5.00;;;1.50;;
15968;SDS011;8085;53.472;9.794;2023-04-01T23:05:36;4.30;;;1.57;;
15968;SDS011;8085;53.472;9.794;2023-04-01T23:08:17;10.33;;;1.40;;
15968;SDS011;8085;53.472;9.794;2023-04-01T23:11:20;6.57;;;1.50;;
15968;SDS011;8085;53.472;9.794;2023-04-01T23:13:52;6.43;;;2.20;;
15968;SDS011;8085;53.472;9.794;2023-04-01T23:16:30;3.60;;;1.60;;
15968;SDS011;8085;53.472;9.794;2023-04-01T23:19:03;4.07;;;1.10;;
15968;SDS011;8085;53.472;9.794;2023-04-01T23:21:42;3.93;;;1.60;;
15968;SDS011;8085;53.472;9.794;2023-04-01T23:24:18;5.70;;;1.43;;
15968;SDS011;8085;53.472;9.794;2023-04-01T23:26:56;5.83;;;1.80;;
15968;SDS011;8085;53.472;9.794;2023-04-01T23:29:34;2.73;;;1.17;;
15968;SDS011;8085;53.472;9.794;2023-04-01T23:32:03;5.70;;;1.80;;
15968;SDS011;8085;53.472;9.794;2023-04-01T23:34:32;5.43;;;1.50;;
15968;SDS011;8085;53.472;9.794;2023-04-01T23:37:04;4.53;;;1.40;;
15968;SDS011;8085;53.472;9.794;2023-04-01T23:39:37;7.90;;;1.90;;
15968;SDS011;8085;53.472;9.794;2023-04-01T23:42:13;5.13;;;1.43;;
15968;SDS011;8085;53.472;9.794;2023-04-01T23:45:02;4.70;;;1.63;;
15968;SDS011;8085;53.472;9.794;2023-04-01T23:47:35;3.47;;;1.30;;
15968;SDS011;8085;53.472;9.794;2023-04-01T23:50:09;6.27;;;2.00;;
15968;SDS011;8085;53.472;9.794;2023-04-01T23:52:55;6.70;;;1.50;;
15968;SDS011;8085;53.472;9.794;2023-04-01T23:55:28;4.30;;;1.50;;
15968;SDS011;8085;53.472;9.794;2023-04-01T23:58:02;5.17;;;1.57;;
